Time;durP1;ratioP1;P1;durP2;ratioP2;P2;SDS_P1;SDS_P2;PMS_P1;PMS_P2;Temp;Humidity;BMP_temperature;BMP_pressure;BME280_temperature;BME280_humidity;BME280_pressure;Samples;Min_cycle;Max_cycle;Signal;HPM_P1;HPM_P2
2021/03/02 00:01:24;;;;;;;3.72;2.40;;;;;;;1.73;77.73;100775.25;1668388;86;21248;-67
2021/03/02 00:03:53;;;;;;;5.20;2.60;;;;;;;1.73;77.64;100765.86;1667202;85;21169;-68
2021/03/02 00:06:21;;;;;;;5.95;3.10;;;;;;;1.66;77.80;100759.58;1668426;86;21151;-67
2021/03/02 00:08:49;;;;;;;5.20;3.00;;;;;;;1.67;77.72;100758.53;1671600;85;21622;-69
2021/03/02 00:11:16;;;;;;;4.80;2.90;;;;;;;1.74;77.48;100755.41;1666099;84;21212;-67
2021/03/02 00:13:44;;;;;;;5.20;3.00;;;;;;;1.71;77.62;100754.96;1700978;84;21178;-68
2021/03/02 00:16:12;;;;;;;7.58;3.25;;;;;;;1.66;77.70;100739.45;1707982;84;21207;-68
2021/03/02 00:18:46;;;;;;;5.87;2.90;;;;;;;1.73;77.59;100738.17;1700217;84;21149;-68
2021/03/02 00:21:17;;;;;;;6.25;3.17;;;;;;;1.75;77.46;100731.58;1694317;83;21325;-68
2021/03/02 00:23:54;;;;;;;6.65;3.33;;;;;;;1.70;77.63;100729.16;1709552;83;21343;-68
2021/03/02 00:26:23;;;;;;;7.08;3.40;;;;;;;1.72;77.59;100720.39;1659182;84;21596;-68
2021/03/02 00:28:51;;;;;;;7.35;3.65;;;;;;;1.79;77.30;100717.27;1665916;84;21208;-68
2021/03/02 00:31:19;;;;;;;6.42;3.30;;;;;;;1.73;77.41;100709.98;1707169;84;21300;-69
2021/03/02 00:33:47;;;;;;;5.90;2.92;;;;;;;1.69;77.54;100712.73;1708718;84;21594;-68
2021/03/02 00:36:15;;;;;;;5.87;3.30;;;;;;;1.77;77.31;100706.70;1709122;84;21187;-68
2021/03/02 00:38:42;;;;;;;7.83;3.52;;;;;;;1.80;77.24;100699.64;1697237;84;21173;-68
2021/03/02 00:41:10;;;;;;;6.62;3.37;;;;;;;1.75;77.34;100697.19;1708881;84;21142;-68
2021/03/02 00:43:37;;;;;;;7.85;3.58;;;;;;;1.76;77.12;100692.15;1673318;84;21152;-68
2021/03/02 00:46:05;;;;;;;5.90;3.17;;;;;;;1.83;76.95;100686.33;1692588;84;21189;-68
2021/03/02 00:48:33;;;;;;;7.20;3.47;;;;;;;1.73;77.06;100680.45;1709545;84;21649;-69
2021/03/02 00:51:01;;;;;;;6.50;3.52;;;;;;;1.72;77.11;100674.25;1692316;83;21118;-68
2021/03/02 00:53:29;;;;;;;6.75;3.67;;;;;;;1.80;76.90;100675.98;1706314;84;21158;-68
2021/03/02 00:55:57;;;;;;;6.83;3.72;;;;;;;1.66;77.19;100672.34;1692413;84;21157;-68
2021/03/02 00:58:24;;;;;;;7.45;3.70;;;;;;;1.67;77.19;100665.09;1684095;84;21154;-68
2021/03/02 01:00:52;;;;;;;7.55;4.35;;;;;;;1.70;77.11;100662.05;1700237;84;21134;-68
2021/03/02 01:03:20;;;;;;;8.18;4.65;;;;;;;1.61;77.32;100664.53;1709213;84;21280;-68
2021/03/02 01:05:48;;;;;;;8.28;4.58;;;;;;;1.52;77.67;100667.86;1708881;84;21173;-67
2021/03/02 01:08:17;;;;;;;7.40;4.62;;;;;;;1.56;77.61;100660.27;1693572;84;21178;-69
2021/03/02 01:10:47;;;;;;;8.25;4.50;;;;;;;1.56;77.56;100653.02;1708487;83;21214;-67
2021/03/02 01:13:17;;;;;;;8.68;5.20;;;;;;;1.46;77.83;100653.34;1703103;83;21639;-67
2021/03/02 01:15:45;;;;;;;9.05;4.92;;;;;;;1.45;78.07;100656.23;1713072;83;21278;-67
2021/03/02 01:18:13;;;;;;;12.37;5.30;;;;;;;1.50;77.81;100653.28;1708698;83;21203;-67
2021/03/02 01:20:41;;;;;;;7.78;4.42;;;;;;;1.45;77.93;100651.67;1720977;83;21173;-67
2021/03/02 01:23:09;;;;;;;8.43;4.50;;;;;;;1.37;78.17;100641.08;1722558;83;21624;-67
2021/03/02 01:25:37;;;;;;;8.35;4.87;;;;;;;1.36;78.35;100641.26;1706652;83;21234;-67
2021/03/02 01:28:27;;;;;;;10.18;4.72;;;;;;;1.41;78.17;100635.66;1701400;83;21187;-67
2021/03/02 01:30:54;;;;;;;9.95;4.83;;;;;;;1.36;78.32;100619.29;1711601;82;21652;-65
2021/03/02 01:33:22;;;;;;;8.18;4.85;;;;;;;1.30;78.53;100632.12;1682398;84;22023;-65
2021/03/02 01:35:50;;;;;;;8.55;4.33;;;;;;;1.34;78.38;100631.24;1690908;84;21221;-67
2021/03/02 01:38:18;;;;;;;8.08;4.78;;;;;;;1.33;78.35;100614.81;1680440;85;21666;-66
2021/03/02 01:40:46;;;;;;;8.63;5.03;;;;;;;1.24;78.60;100607.39;1680177;84;21221;-66
2021/03/02 01:43:15;;;;;;;9.68;5.40;;;;;;;1.26;78.69;100609.39;1705000;83;21337;-65
2021/03/02 01:45:43;;;;;;;9.73;4.58;;;;;;;1.31;78.54;100593.53;1692659;84;21221;-65
2021/03/02 01:48:12;;;;;;;7.65;4.40;;;;;;;1.20;79.02;100595.91;1688603;84;21734;-65
2021/03/02 01:50:40;;;;;;;8.43;4.80;;;;;;;1.23;78.85;100599.55;1705278;84;21705;-65
2021/03/02 01:53:08;;;;;;;9.80;5.55;;;;;;;1.22;78.89;100598.71;1700950;83;21188;-65
2021/03/02 01:55:35;;;;;;;8.70;4.80;;;;;;;1.14;79.00;100591.28;1707962;84;21863;-66
2021/03/02 01:58:03;;;;;;;7.78;4.22;;;;;;;1.12;79.15;100595.52;1683049;84;21332;-66
2021/03/02 02:00:35;;;;;;;6.80;4.00;;;;;;;1.16;79.00;100582.05;1678959;84;21192;-65
2021/03/02 02:03:21;;;;;;;7.08;3.80;;;;;;;1.07;79.23;100589.87;1693972;83;21686;-67
2021/03/02 02:06:12;;;;;;;8.30;4.37;;;;;;;1.04;79.33;100586.74;1704924;84;21195;-67
2021/03/02 02:09:17;;;;;;;7.65;4.62;;;;;;;1.05;79.38;100578.52;1704305;84;21195;-66
2021/03/02 02:12:09;;;;;;;10.63;5.08;;;;;;;0.95;79.58;100571.30;1706656;84;21344;-66
2021/03/02 02:14:46;;;;;;;8.33;4.53;;;;;;;0.87;80.01;100572.24;1708668;83;21666;-66
2021/03/02 02:17:44;;;;;;;9.30;4.22;;;;;;;0.94;79.85;100566.44;1671951;84;22076;-67
2021/03/02 02:20:17;;;;;;;7.00;4.25;;;;;;;0.84;80.15;100564.58;1707939;84;21223;-66
2021/03/02 02:23:16;;;;;;;9.20;4.97;;;;;;;0.81;80.24;100554.23;1700143;84;21187;-66
2021/03/02 02:25:58;;;;;;;8.30;5.30;;;;;;;0.85;80.45;100569.44;1690963;84;21626;-65
2021/03/02 02:28:26;;;;;;;9.78;4.80;;;;;;;0.69;81.18;100572.31;1706196;84;21195;-65
2021/03/02 02:30:56;;;;;;;10.80;5.15;;;;;;;0.71;81.42;100567.09;1678410;84;21732;-67
2021/03/02 02:33:27;;;;;;;9.55;5.25;;;;;;;0.83;81.11;100565.59;1668954;85;21212;-65
2021/03/02 02:35:55;;;;;;;9.70;5.78;;;;;;;0.89;80.98;100554.61;1674512;85;21194;-66
2021/03/02 02:38:22;;;;;;;12.05;6.20;;;;;;;0.85;81.13;100549.33;1683733;85;21192;-67
2021/03/02 02:40:51;;;;;;;10.20;5.53;;;;;;;0.91;81.04;100545.89;1666366;85;21199;-66
2021/03/02 02:43:19;;;;;;;10.85;5.67;;;;;;;0.95;80.85;100543.15;1652057;85;21338;-66
2021/03/02 02:45:46;;;;;;;8.85;5.62;;;;;;;0.76;80.85;100508.41;1667236;85;21200;-65
2021/03/02 02:48:14;;;;;;;10.95;5.97;;;;;;;0.97;80.73;100549.97;1677516;85;21346;-66
2021/03/02 02:50:46;;;;;;;9.13;5.55;;;;;;;1.00;80.58;100554.12;1688381;85;21334;-66
2021/03/02 02:53:14;;;;;;;11.43;6.10;;;;;;;0.98;80.61;100554.33;1680521;84;21173;-66
2021/03/02 02:55:57;;;;;;;9.00;6.10;;;;;;;0.96;80.75;100550.16;1659210;85;21780;-66
2021/03/02 02:58:39;;;;;;;10.00;6.12;;;;;;;0.97;80.63;100544.61;1678474;85;21228;-67
2021/03/02 03:01:06;;;;;;;11.28;6.55;;;;;;;0.98;80.51;100551.64;1639189;86;21228;-67
2021/03/02 03:03:36;;;;;;;10.72;6.20;;;;;;;0.97;80.68;100539.75;1642388;87;21196;-66
2021/03/02 03:06:07;;;;;;;8.73;6.20;;;;;;;0.99;80.55;100540.41;1649155;87;21177;-67
2021/03/02 03:08:35;;;;;;;11.08;6.37;;;;;;;1.06;80.36;100533.27;1645595;86;21203;-67
2021/03/02 03:11:04;;;;;;;14.58;6.83;;;;;;;1.00;80.54;100534.01;1651317;86;21200;-66
2021/03/02 03:13:36;;;;;;;10.65;6.55;;;;;;;0.96;80.66;100521.50;1634178;88;21669;-67
2021/03/02 03:16:06;;;;;;;12.70;6.28;;;;;;;1.02;80.44;100521.77;1634192;86;21230;-67
2021/03/02 03:18:55;;;;;;;11.57;6.83;;;;;;;0.99;80.42;100528.34;1628790;87;21204;-67
2021/03/02 03:21:36;;;;;;;9.83;6.70;;;;;;;1.02;80.45;100526.62;1750041;79;23058;-66
2021/03/02 03:24:04;;;;;;;10.98;7.10;;;;;;;1.02;80.30;100524.45;1693801;85;21683;-66
2021/03/02 03:26:32;;;;;;;11.88;7.83;;;;;;;1.03;80.25;100536.84;1705796;83;21238;-66
2021/03/02 03:29:00;;;;;;;10.60;6.80;;;;;;;0.95;80.38;100527.90;1715136;83;21291;-67
2021/03/02 03:31:28;;;;;;;11.15;7.20;;;;;;;0.95;80.49;100525.73;1721810;82;21600;-67
2021/03/02 03:33:55;;;;;;;11.33;7.60;;;;;;;1.03;80.19;100523.44;1722429;83;21137;-66
2021/03/02 03:36:24;;;;;;;11.15;7.70;;;;;;;0.98;80.27;100526.68;1700157;83;21348;-67
2021/03/02 03:38:51;;;;;;;12.35;7.83;;;;;;;0.95;80.36;100523.05;1699202;83;21635;-67
2021/03/02 03:41:19;;;;;;;14.70;8.90;;;;;;;1.04;80.11;100517.86;1722277;82;21177;-66
2021/03/02 03:43:46;;;;;;;15.98;8.73;;;;;;;1.00;80.17;100511.22;1720653;83;21667;-67
2021/03/02 03:46:13;;;;;;;14.68;8.80;;;;;;;0.96;80.31;100519.32;1722421;82;21211;-67
2021/03/02 03:48:41;;;;;;;11.40;8.03;;;;;;;1.02;80.22;100515.06;1716167;83;21632;-67
2021/03/02 03:51:08;;;;;;;13.60;9.30;;;;;;;0.97;80.30;100515.13;1707499;82;21271;-67
2021/03/02 03:53:37;;;;;;;14.50;9.58;;;;;;;0.97;80.23;100513.78;1651246;87;21548;-67
2021/03/02 03:56:05;;;;;;;13.38;9.03;;;;;;;0.87;80.50;100497.69;1673884;85;21735;-67
2021/03/02 03:58:33;;;;;;;14.18;9.70;;;;;;;0.91;80.51;100511.87;1666004;85;21177;-66
2021/03/02 04:01:03;;;;;;;15.30;10.43;;;;;;;0.96;80.31;100508.09;1642959;85;21650;-67
2021/03/02 04:03:33;;;;;;;15.72;10.48;;;;;;;0.89;80.57;100508.53;1661462;85;21193;-66
2021/03/02 04:06:01;;;;;;;17.60;10.95;;;;;;;0.91;80.55;100506.52;1673232;85;21157;-66
2021/03/02 04:08:29;;;;;;;15.70;9.80;;;;;;;0.95;80.47;100505.62;1678431;85;21188;-67
2021/03/02 04:10:58;;;;;;;15.72;10.82;;;;;;;0.88;80.70;100506.06;1674766;84;21770;-67
2021/03/02 04:13:26;;;;;;;15.00;10.45;;;;;;;0.88;80.73;100500.19;1664248;85;21617;-66
2021/03/02 04:15:55;;;;;;;17.30;11.05;;;;;;;0.92;80.54;100500.11;1662951;84;21197;-66
2021/03/02 04:18:23;;;;;;;16.67;11.05;;;;;;;0.91;80.59;100489.59;1638316;87;21157;-67
2021/03/02 04:20:50;;;;;;;17.12;11.22;;;;;;;0.82;80.92;100497.41;1644061;84;21532;-67
2021/03/02 04:23:17;;;;;;;14.93;10.23;;;;;;;0.90;80.72;100490.60;1649329;86;21174;-67
2021/03/02 04:25:45;;;;;;;16.23;11.43;;;;;;;0.88;80.70;100484.11;1661908;85;21609;-67
2021/03/02 04:28:12;;;;;;;13.93;9.93;;;;;;;0.82;80.97;100488.03;1662057;86;21198;-68
2021/03/02 04:30:39;;;;;;;17.07;10.60;;;;;;;0.81;81.03;100479.70;1661870;85;21628;-67
2021/03/02 04:33:08;;;;;;;15.68;11.03;;;;;;;0.88;80.81;100475.23;1649472;86;21169;-69
2021/03/02 04:35:36;;;;;;;16.80;10.20;;;;;;;0.81;81.04;100479.70;1652728;86;21202;-67
2021/03/02 04:38:04;;;;;;;15.28;10.28;;;;;;;0.78;81.20;100476.87;1690640;84;21300;-68
2021/03/02 04:40:32;;;;;;;15.23;9.93;;;;;;;0.83;81.04;100477.64;1702803;84;21292;-66
2021/03/02 04:43:00;;;;;;;16.27;10.78;;;;;;;0.81;81.08;100471.66;1686779;84;21582;-67
2021/03/02 04:45:29;;;;;;;17.55;10.13;;;;;;;0.72;81.38;100470.94;1706096;82;21315;-65
2021/03/02 04:47:57;;;;;;;17.48;10.38;;;;;;;0.77;81.30;100468.53;1689785;84;21131;-66
2021/03/02 04:50:24;;;;;;;17.00;9.60;;;;;;;0.78;81.21;100467.48;1695293;84;21691;-67
2021/03/02 04:52:52;;;;;;;13.20;9.38;;;;;;;0.74;81.42;100466.73;1691581;84;21172;-66
2021/03/02 04:55:19;;;;;;;13.85;9.08;;;;;;;0.83;81.14;100469.60;1683898;82;21141;-65
2021/03/02 04:57:47;;;;;;;15.08;9.75;;;;;;;0.78;81.18;100471.50;1708661;84;21170;-65
2021/03/02 05:00:16;;;;;;;13.53;9.73;;;;;;;0.72;81.41;100470.94;1709050;84;21185;-67
2021/03/02 05:02:43;;;;;;;14.68;8.75;;;;;;;0.80;81.20;100468.65;1685264;84;21284;-68
2021/03/02 05:05:12;;;;;;;13.75;9.28;;;;;;;0.83;81.07;100472.28;1693432;84;21644;-68
2021/03/02 05:07:39;;;;;;;14.95;9.00;;;;;;;0.77;81.13;100465.84;1688045;84;21637;-68
2021/03/02 05:10:08;;;;;;;14.95;8.75;;;;;;;0.79;81.15;100468.32;1709453;84;21605;-68
2021/03/02 05:12:36;;;;;;;17.12;8.75;;;;;;;0.84;81.02;100456.02;1686350;84;21164;-68
2021/03/02 05:15:05;;;;;;;12.70;8.10;;;;;;;0.77;81.22;100452.45;1709302;84;21717;-67
2021/03/02 05:17:33;;;;;;;16.97;8.63;;;;;;;0.82;81.15;100453.19;1706999;82;21149;-67
2021/03/02 05:20:02;;;;;;;12.55;7.75;;;;;;;0.83;81.03;100450.84;1710779;83;21189;-67
2021/03/02 05:22:29;;;;;;;13.60;9.23;;;;;;;0.82;81.10;100456.70;1721030;82;21145;-68
2021/03/02 05:24:57;;;;;;;13.50;8.48;;;;;;;0.82;80.98;100450.00;1722862;83;21354;-67
2021/03/02 05:27:25;;;;;;;14.25;8.30;;;;;;;0.91;80.81;100464.13;1699300;83;21196;-67
2021/03/02 05:29:53;;;;;;;15.10;8.73;;;;;;;0.90;80.77;100459.77;1723039;83;21749;-68
2021/03/02 05:32:20;;;;;;;12.58;8.40;;;;;;;0.84;80.98;100468.09;1722554;83;21624;-67
2021/03/02 05:34:48;;;;;;;13.80;8.58;;;;;;;0.86;80.92;100460.67;1704588;83;21122;-68
2021/03/02 05:37:16;;;;;;;13.78;8.53;;;;;;;0.91;80.76;100462.28;1718847;82;21202;-66
2021/03/02 05:39:44;;;;;;;15.15;9.88;;;;;;;0.97;80.57;100448.60;1718930;83;21529;-66
2021/03/02 05:42:11;;;;;;;13.55;9.15;;;;;;;0.87;80.83;100439.55;1708045;83;21177;-67
2021/03/02 05:44:38;;;;;;;12.53;8.98;;;;;;;0.95;80.74;100439.94;1711828;83;21640;-67
2021/03/02 05:47:07;;;;;;;16.05;9.58;;;;;;;0.97;80.63;100439.22;1693897;85;21153;-66
2021/03/02 05:49:36;;;;;;;15.35;10.53;;;;;;;0.93;80.72;100444.13;1603716;88;21315;-67
2021/03/02 05:52:04;;;;;;;15.63;10.48;;;;;;;0.95;80.73;100442.11;1693309;83;21215;-67
2021/03/02 05:54:31;;;;;;;16.05;10.70;;;;;;;1.03;80.48;100433.08;1712434;83;21161;-67
2021/03/02 05:56:58;;;;;;;16.87;10.70;;;;;;;0.98;80.60;100432.84;1723000;82;21193;-67
2021/03/02 05:59:26;;;;;;;20.52;13.45;;;;;;;0.98;80.63;100425.63;1720810;83;21635;-67
2021/03/02 06:01:53;;;;;;;19.52;11.80;;;;;;;1.08;80.39;100441.89;1722816;82;21169;-67
2021/03/02 06:04:21;;;;;;;18.65;12.53;;;;;;;1.04;80.49;100454.86;1722880;83;21169;-68
2021/03/02 06:06:48;;;;;;;16.52;11.45;;;;;;;1.05;80.53;100436.92;1722633;82;21152;-67
2021/03/02 06:09:18;;;;;;;20.00;13.05;;;;;;;1.11;80.36;100438.81;1720999;83;21145;-68
2021/03/02 06:11:48;;;;;;;23.42;14.65;;;;;;;1.09;80.42;100444.39;1722561;82;21191;-66
2021/03/02 06:14:24;;;;;;;20.92;13.75;;;;;;;1.03;80.67;100435.76;1670522;83;21286;-68
2021/03/02 06:16:54;;;;;;;21.37;13.13;;;;;;;1.05;80.68;100430.22;1693885;85;21628;-65
2021/03/02 06:19:46;;;;;;;22.52;14.70;;;;;;;1.13;80.42;100412.15;1718769;83;21181;-66
2021/03/02 06:22:36;;;;;;;24.45;14.25;;;;;;;1.11;80.46;100416.86;1721841;82;21195;-68
2021/03/02 06:27:45;;;;;;;26.33;16.00;;;;;;;1.22;80.30;100419.02;1776859;79;22798;-65
2021/03/02 06:30:14;;;;;;;23.47;14.45;;;;;;;1.11;80.42;100426.24;1750183;82;21268;-67
2021/03/02 06:32:45;;;;;;;25.57;14.98;;;;;;;1.10;80.61;100425.11;1707237;84;21601;-66
2021/03/02 06:35:38;;;;;;;25.55;16.32;;;;;;;1.16;80.34;100424.33;1707060;84;21204;-65
2021/03/02 06:38:06;;;;;;;26.97;15.80;;;;;;;1.23;80.19;100421.19;1706985;84;21564;-65
2021/03/02 06:40:39;;;;;;;27.48;17.00;;;;;;;1.14;80.40;100427.20;1706999;83;21202;-66
2021/03/02 06:43:08;;;;;;;24.87;15.20;;;;;;;1.17;80.48;100422.78;1707063;84;21818;-67
2021/03/02 06:45:36;;;;;;;29.72;18.10;;;;;;;1.27;80.20;100417.09;1706891;83;21196;-67
2021/03/02 06:48:05;;;;;;;31.00;16.93;;;;;;;1.24;80.20;100410.78;1654742;84;21172;-67
2021/03/02 06:50:39;;;;;;;27.85;16.70;;;;;;;1.26;80.19;100420.29;1706953;84;21627;-67
2021/03/02 06:53:11;;;;;;;29.37;17.65;;;;;;;1.35;79.89;100420.95;1706845;84;21193;-65
2021/03/02 06:55:41;;;;;;;31.30;17.55;;;;;;;1.30;79.88;100424.75;1706714;84;21177;-66
2021/03/02 06:58:19;;;;;;;28.73;17.77;;;;;;;1.26;80.06;100426.99;1706959;84;21197;-66
2021/03/02 07:00:55;;;;;;;30.97;17.52;;;;;;;1.36;79.80;100418.09;1706779;84;21153;-66
2021/03/02 07:03:36;;;;;;;30.35;16.45;;;;;;;1.37;79.65;100418.92;1705893;84;21188;-67
2021/03/02 07:06:07;;;;;;;31.30;17.85;;;;;;;1.33;79.79;100421.67;1706596;83;21651;-66
2021/03/02 07:08:36;;;;;;;37.10;19.75;;;;;;;1.20;79.42;100384.88;1701103;84;21582;-63
2021/03/02 07:11:05;;;;;;;34.33;19.05;;;;;;;1.36;79.22;100420.77;1678592;84;21173;-62
2021/03/02 07:13:33;;;;;;;35.28;19.32;;;;;;;1.38;79.16;100413.88;1688791;84;21161;-62
2021/03/02 07:16:02;;;;;;;39.25;20.10;;;;;;;1.33;79.26;100414.45;1706892;84;21691;-62
2021/03/02 07:18:31;;;;;;;37.20;19.48;;;;;;;1.36;79.19;100406.52;1707130;84;21565;-62
2021/03/02 07:21:00;;;;;;;37.33;19.70;;;;;;;1.47;78.85;100408.16;1706938;84;21246;-62
2021/03/02 07:23:30;;;;;;;40.60;20.43;;;;;;;1.43;78.95;100410.08;1677644;84;21589;-63
2021/03/02 07:25:58;;;;;;;38.33;19.50;;;;;;;1.48;78.85;100404.97;1697726;84;21181;-63
2021/03/02 07:28:28;;;;;;;42.25;22.20;;;;;;;1.59;78.48;100405.77;1676115;85;21169;-62
2021/03/02 07:30:55;;;;;;;42.78;20.57;;;;;;;1.56;78.41;100403.98;1691216;85;21328;-62
2021/03/02 07:33:24;;;;;;;40.55;21.93;;;;;;;1.53;78.48;100404.35;1669166;85;21185;-63
2021/03/02 07:35:58;;;;;;;45.85;22.30;;;;;;;1.62;78.18;100402.68;1671897;85;21210;-64
2021/03/02 07:38:26;;;;;;;41.05;20.15;;;;;;;1.64;78.11;100406.48;1727798;82;21513;-63
2021/03/02 07:40:55;;;;;;;43.58;21.62;;;;;;;1.59;78.20;100404.92;1726668;82;21162;-64
2021/03/02 07:43:35;;;;;;;40.48;17.55;;;;;;;1.65;78.03;100408.98;1736037;82;21134;-63
2021/03/02 07:46:41;;;;;;;46.28;24.27;;;;;;;1.65;77.90;100396.91;1700301;82;21288;-62
2021/03/02 07:49:31;;;;;;;47.60;22.22;;;;;;;1.62;78.13;100397.31;1715844;82;21179;-62
2021/03/02 07:52:09;;;;;;;49.33;24.05;;;;;;;1.73;78.03;100387.88;1723391;81;21194;-63
2021/03/02 07:54:37;;;;;;;49.77;23.25;;;;;;;1.70;77.87;100396.33;1681494;82;21150;-63
2021/03/02 07:57:21;;;;;;;55.05;25.23;;;;;;;1.67;78.01;100394.84;1656365;84;21209;-61
2021/03/02 08:00:18;;;;;;;49.55;24.90;;;;;;;1.75;77.82;100392.52;1716598;82;21621;-62
2021/03/02 08:03:26;;;;;;;56.68;26.07;;;;;;;1.76;77.89;100384.78;1731343;82;21561;-64
2021/03/02 08:05:59;;;;;;;53.83;25.40;;;;;;;1.69;78.06;100382.58;1706749;81;21157;-65
2021/03/02 08:08:29;;;;;;;54.55;24.02;;;;;;;1.76;77.93;100367.34;1709129;82;21173;-62
2021/03/02 08:11:07;;;;;;;49.58;23.57;;;;;;;1.78;77.67;100372.81;1707139;82;21149;-62
2021/03/02 08:13:41;;;;;;;48.60;23.45;;;;;;;1.53;77.92;100347.50;1689190;82;21189;-61
2021/03/02 08:16:10;;;;;;;49.85;22.50;;;;;;;1.73;77.89;100371.77;1707146;84;21209;-62
2021/03/02 08:18:42;;;;;;;51.18;23.62;;;;;;;1.86;77.60;100374.50;1707063;84;21151;-63
2021/03/02 08:21:17;;;;;;;49.08;21.93;;;;;;;1.83;77.63;100373.56;1678462;85;21201;-62
2021/03/02 08:23:57;;;;;;;52.00;24.87;;;;;;;1.77;77.87;100367.66;1707100;83;21293;-62
2021/03/02 08:26:31;;;;;;;49.20;22.73;;;;;;;1.78;77.88;100358.56;1707105;83;21176;-64
2021/03/02 08:29:16;;;;;;;49.67;24.00;;;;;;;1.83;77.82;100354.77;1717839;82;21278;-62
2021/03/02 08:31:49;;;;;;;48.85;23.22;;;;;;;1.78;77.94;100351.84;1711570;83;21620;-61
2021/03/02 08:34:19;;;;;;;56.18;25.45;;;;;;;1.82;77.70;100351.25;1707952;83;21115;-64
2021/03/02 08:36:50;;;;;;;48.87;22.85;;;;;;;1.89;77.63;100353.45;1707031;84;21176;-64
2021/03/02 08:39:19;;;;;;;45.30;21.00;;;;;;;1.84;77.73;100347.84;1663552;85;21192;-63
2021/03/02 08:41:49;;;;;;;46.92;24.12;;;;;;;1.85;77.79;100354.05;1681892;85;21491;-62
2021/03/02 08:44:24;;;;;;;50.12;23.27;;;;;;;1.91;77.45;100341.98;1691431;85;21304;-63
2021/03/02 08:46:56;;;;;;;49.03;19.95;;;;;;;1.89;77.44;100344.05;1726605;82;21626;-63
2021/03/02 08:49:25;;;;;;;45.25;19.57;;;;;;;1.78;77.77;100349.99;1719913;82;21652;-63
2021/03/02 08:52:01;;;;;;;43.85;19.27;;;;;;;1.79;77.75;100369.11;1734644;82;21619;-62
2021/03/02 08:54:28;;;;;;;47.75;21.93;;;;;;;1.83;77.49;100363.66;1728326;82;21187;-62
2021/03/02 08:57:03;;;;;;;47.03;21.55;;;;;;;1.78;77.73;100357.22;1722022;83;21180;-62
2021/03/02 08:59:31;;;;;;;46.73;21.27;;;;;;;1.78;77.98;100355.87;1723784;81;21165;-63
2021/03/02 09:01:59;;;;;;;44.55;23.85;;;;;;;1.80;77.66;100353.33;1703483;82;21367;-62
2021/03/02 09:04:33;;;;;;;49.83;23.02;;;;;;;1.80;77.75;100357.35;1714674;82;21284;-62
2021/03/02 09:07:01;;;;;;;49.00;22.98;;;;;;;1.75;78.14;100361.64;1736269;82;21162;-62
2021/03/02 09:09:30;;;;;;;49.00;24.25;;;;;;;1.83;78.13;100366.86;1734500;82;21299;-63
2021/03/02 09:11:59;;;;;;;44.55;21.52;;;;;;;1.91;77.73;100369.37;1727871;82;21130;-63
2021/03/02 09:17:12;;;;;;;40.83;20.00;;;;;;;1.97;77.43;100372.59;1755613;79;23200;-63
2021/03/02 09:19:41;;;;;;;42.83;20.65;;;;;;;1.89;77.15;100355.30;1722665;82;21148;-63
2021/03/02 09:22:15;;;;;;;43.02;18.57;;;;;;;1.88;77.21;100350.45;1722646;83;21188;-62
2021/03/02 09:24:56;;;;;;;41.58;20.77;;;;;;;1.91;77.31;100346.02;1716638;83;21207;-62
2021/03/02 09:27:32;;;;;;;45.52;21.75;;;;;;;1.98;77.13;100352.78;1708601;84;21212;-63
2021/03/02 09:30:00;;;;;;;42.80;21.27;;;;;;;1.91;77.30;100350.58;1715319;83;21149;-63
2021/03/02 09:32:29;;;;;;;43.05;21.45;;;;;;;1.97;77.35;100347.92;1722756;82;21149;-62
2021/03/02 09:35:00;;;;;;;39.88;19.12;;;;;;;2.11;77.01;100342.58;1723805;83;21128;-62
2021/03/02 09:37:28;;;;;;;42.50;19.90;;;;;;;2.00;76.97;100336.77;1696663;83;21209;-62
2021/03/02 09:40:04;;;;;;;38.00;19.12;;;;;;;2.09;76.89;100339.28;1674737;83;21150;-63
2021/03/02 09:42:34;;;;;;;38.38;19.32;;;;;;;2.14;76.61;100348.89;1707878;83;21168;-63
2021/03/02 09:45:17;;;;;;;35.92;17.80;;;;;;;2.09;76.83;100334.71;1709278;83;21130;-63
2021/03/02 09:47:47;;;;;;;38.73;18.40;;;;;;;2.12;76.72;100329.47;1721408;83;21157;-61
2021/03/02 09:50:18;;;;;;;38.10;19.77;;;;;;;2.23;76.41;100347.69;1722626;83;21180;-62
2021/03/02 09:52:52;;;;;;;35.70;18.67;;;;;;;2.24;76.25;100346.63;1722611;82;21185;-62
2021/03/02 09:55:24;;;;;;;42.53;20.02;;;;;;;2.22;76.34;100341.48;1710946;83;21672;-62
2021/03/02 09:58:10;;;;;;;37.23;19.32;;;;;;;2.20;76.32;100351.58;1722740;83;21605;-62
2021/03/02 10:01:12;;;;;;;34.85;19.37;;;;;;;2.30;75.93;100350.67;1713623;83;21185;-64
2021/03/02 10:03:41;;;;;;;35.98;18.98;;;;;;;2.32;75.88;100337.88;1781898;80;21892;-62
2021/03/02 10:06:10;;;;;;;35.85;20.00;;;;;;;2.24;76.08;100339.92;1723918;81;21147;-62
2021/03/02 10:08:40;;;;;;;37.60;19.32;;;;;;;2.23;76.07;100333.72;1758949;81;21156;-62
2021/03/02 10:11:17;;;;;;;39.48;20.10;;;;;;;2.31;75.67;100346.13;1699677;83;21615;-63
2021/03/02 10:13:49;;;;;;;;;;;;;;;2.30;75.77;100335.09;1702670;83;21187;-62
2021/03/02 10:16:35;;;;;;;35.23;17.80;;;;;;;2.23;75.93;100324.85;1737773;80;20178;-63
2021/03/02 10:19:14;;;;;;;40.30;21.33;;;;;;;2.25;76.02;100320.09;1720505;81;21144;-63
2021/03/02 10:21:49;;;;;;;37.85;17.82;;;;;;;2.32;75.76;100308.84;1741045;80;21462;-62
2021/03/02 10:24:50;;;;;;;37.23;19.92;;;;;;;2.25;75.87;100303.46;1706089;81;21184;-63
2021/03/02 10:27:19;;;;;;;38.05;19.57;;;;;;;2.31;75.74;100293.23;1644426;86;21346;-64
2021/03/02 10:29:47;;;;;;;35.90;18.82;;;;;;;2.36;75.54;100280.03;1638595;87;21334;-62
2021/03/02 10:32:16;;;;;;;35.70;18.50;;;;;;;2.32;75.67;100286.00;1638895;86;21656;-63
2021/03/02 10:34:45;;;;;;;33.95;19.07;;;;;;;2.32;75.64;100284.16;1638701;87;21214;-62
2021/03/02 10:37:14;;;;;;;33.88;18.92;;;;;;;2.41;75.26;100280.22;1638598;86;21623;-63
2021/03/02 10:39:43;;;;;;;33.60;18.37;;;;;;;2.46;75.22;100276.41;1638776;87;21208;-62
2021/03/02 10:42:11;;;;;;;34.30;18.32;;;;;;;2.45;75.33;100280.63;1638674;86;21211;-63
2021/03/02 10:44:42;;;;;;;32.10;17.87;;;;;;;2.49;75.13;100273.81;1638895;87;21250;-64
2021/03/02 10:47:09;;;;;;;35.52;19.92;;;;;;;2.61;74.83;100266.80;1638803;86;21751;-63
2021/03/02 10:49:37;;;;;;;31.12;15.68;;;;;;;2.57;74.61;100255.32;1638575;87;21186;-63
2021/03/02 10:52:05;;;;;;;38.23;19.95;;;;;;;2.54;74.71;100247.67;1638522;86;21376;-63
2021/03/02 10:54:33;;;;;;;33.98;20.08;;;;;;;2.63;74.59;100249.94;1613001;87;21257;-63
2021/03/02 10:57:01;;;;;;;32.78;18.37;;;;;;;2.73;74.22;100242.81;1638464;86;21356;-63
2021/03/02 10:59:29;;;;;;;34.00;18.65;;;;;;;2.68;73.87;100231.33;1638861;87;21600;-63
2021/03/02 11:01:57;;;;;;;32.83;19.00;;;;;;;2.67;74.15;100239.08;1638516;86;21204;-63
2021/03/02 11:04:25;;;;;;;33.13;18.37;;;;;;;2.74;74.09;100237.72;1634373;87;21184;-64
2021/03/02 11:06:53;;;;;;;35.78;19.75;;;;;;;2.79;73.69;100239.28;1638447;86;21172;-63
2021/03/02 11:09:20;;;;;;;35.75;18.52;;;;;;;2.74;73.96;100237.72;1634619;87;21180;-63
2021/03/02 11:11:48;;;;;;;32.42;18.32;;;;;;;2.75;73.99;100236.19;1638776;86;21549;-63
2021/03/02 11:14:16;;;;;;;37.05;19.48;;;;;;;2.90;73.70;100232.76;1638581;87;21204;-63
2021/03/02 11:16:44;;;;;;;34.98;19.35;;;;;;;2.91;73.30;100225.48;1636914;86;21348;-63
2021/03/02 11:19:12;;;;;;;33.92;19.25;;;;;;;2.86;73.32;100203.80;1627366;87;21170;-62
2021/03/02 11:21:40;;;;;;;34.18;19.50;;;;;;;2.92;73.27;100206.47;1624979;88;21218;-64
2021/03/02 11:24:07;;;;;;;37.75;21.07;;;;;;;3.00;73.04;100208.11;1638331;87;21232;-63
2021/03/02 11:26:36;;;;;;;37.45;18.92;;;;;;;2.93;72.83;100210.81;1630553;87;21215;-63
2021/03/02 11:29:05;;;;;;;37.48;21.10;;;;;;;2.90;72.94;100206.37;1626965;88;21215;-62
2021/03/02 11:31:34;;;;;;;36.00;20.32;;;;;;;3.00;72.75;100194.66;1641046;86;21314;-62
2021/03/02 11:34:02;;;;;;;31.68;19.45;;;;;;;3.04;72.47;100191.86;1640651;87;21607;-62
2021/03/02 11:36:30;;;;;;;34.43;19.55;;;;;;;2.97;72.62;100189.70;1640957;85;21241;-63
2021/03/02 11:38:57;;;;;;;32.23;18.37;;;;;;;2.98;72.66;100181.41;1641051;86;21129;-62
2021/03/02 11:41:25;;;;;;;36.70;20.75;;;;;;;3.13;72.18;100189.23;1640949;86;21349;-64
2021/03/02 11:43:52;;;;;;;34.65;19.77;;;;;;;3.14;72.12;100188.20;1641093;87;21299;-63
2021/03/02 11:46:20;;;;;;;34.92;18.02;;;;;;;3.13;72.15;100183.84;1640859;86;21326;-63